Time;durP1;ratioP1;P1;durP2;ratioP2;P2;SDS_P1;SDS_P2;PMS_P1;PMS_P2;Temp;Humidity;BMP_temperature;BMP_pressure;BME280_temperature;BME280_humidity;BME280_pressure;Samples;Min_cycle;Max_cycle;Signal;HPM_P1;HPM_P2
2022/01/16 00:04:07;;;;;;;13.60;5.80;;;0.40;97.60;;;;;;9829249;29;20028;-57
2022/01/16 00:08:57;;;;;;;11.10;4.68;;;0.40;97.90;;;;;;9827705;29;20689;-60
2022/01/16 00:13:48;;;;;;;11.57;4.35;;;0.40;98.00;;;;;;9823582;29;20074;-60
2022/01/16 00:19:03;;;;;;;13.07;5.20;;;0.30;98.00;;;;;;9830495;29;20051;-60
2022/01/16 00:23:54;;;;;;;12.43;4.22;;;0.40;98.00;;;;;;9823015;29;20036;-60
2022/01/16 00:28:45;;;;;;;9.63;5.03;;;0.50;97.70;;;;;;9824623;29;20036;-56
2022/01/16 00:33:39;;;;;;;16.08;4.57;;;0.60;97.90;;;;;;9820533;29;20348;-54
2022/01/16 00:38:30;;;;;;;15.43;5.68;;;0.50;97.70;;;;;;9825414;29;20384;-58
2022/01/16 00:43:20;;;;;;;14.65;5.45;;;0.40;97.90;;;;;;9822089;29;20036;-60
2022/01/16 00:48:11;;;;;;;13.98;4.20;;;0.60;97.80;;;;;;9822380;29;20793;-58
2022/01/16 00:53:03;;;;;;;11.95;4.47;;;0.50;97.80;;;;;;9823839;29;20139;-55
2022/01/16 00:57:54;;;;;;;16.35;5.38;;;0.50;97.80;;;;;;9820371;29;20049;-62
2022/01/16 01:02:45;;;;;;;14.57;4.90;;;0.40;97.70;;;;;;9822101;29;20043;-59
2022/01/16 01:07:38;;;;;;;12.32;3.90;;;0.40;98.00;;;;;;9833366;29;20391;-69
2022/01/16 01:12:40;;;;;;;15.15;5.30;;;0.40;97.90;;;;;;9820977;29;20494;-62
2022/01/16 01:17:35;;;;;;;9.90;4.72;;;0.50;97.90;;;;;;9819925;29;20016;-66
2022/01/16 01:22:26;;;;;;;13.38;4.97;;;0.50;97.90;;;;;;9824305;29;20491;-61
2022/01/16 01:27:29;;;;;;;10.82;5.10;;;0.70;97.80;;;;;;9822805;29;20040;-68
2022/01/16 01:32:20;;;;;;;22.83;6.90;;;0.60;97.70;;;;;;9822217;29;20119;-61
2022/01/16 01:37:11;;;;;;;16.55;4.97;;;0.40;97.70;;;;;;9826113;29;20039;-62
2022/01/16 01:42:08;;;;;;;12.52;5.13;;;0.40;98.10;;;;;;9823961;29;20450;-61
2022/01/16 01:52:09;;;;;;;15.30;4.32;;;0.50;97.80;;;;;;9820522;29;20107;-59
2022/01/16 01:57:01;;;;;;;15.43;4.75;;;0.50;97.90;;;;;;9823220;29;20082;-65
2022/01/16 02:01:51;;;;;;;10.90;4.40;;;0.60;97.90;;;;;;9821046;29;20040;-62
2022/01/16 02:06:42;;;;;;;13.35;4.32;;;0.50;97.70;;;;;;9821986;29;20028;-61
2022/01/16 02:11:34;;;;;;;11.85;5.15;;;0.40;97.90;;;;;;9820529;29;20032;-56
2022/01/16 02:36:59;;;;;;;10.95;4.22;;;0.40;97.80;;;;;;9827368;29;20634;-60
2022/01/16 02:41:52;;;;;;;8.43;2.83;;;0.30;97.90;;;;;;9825914;29;20092;-56
2022/01/16 02:46:44;;;;;;;10.65;4.50;;;0.20;98.00;;;;;;9827408;29;20040;-58
2022/01/16 02:51:35;;;;;;;8.55;4.43;;;0.20;98.00;;;;;;9828241;29;20584;-56
2022/01/16 02:56:25;;;;;;;12.48;3.72;;;0.30;97.90;;;;;;9806789;29;20044;-56
2022/01/16 03:01:17;;;;;;;8.18;4.70;;;0.40;97.80;;;;;;9828473;29;20135;-64
2022/01/16 03:06:08;;;;;;;12.27;4.43;;;0.20;97.90;;;;;;9837612;29;20123;-70
2022/01/16 03:15:52;;;;;;;9.15;4.78;;;0.10;98.00;;;;;;9821110;29;20036;-61
2022/01/16 03:25:53;;;;;;;9.13;3.35;;;0.10;98.10;;;;;;9820683;29;20070;-65
2022/01/16 03:30:44;;;;;;;10.30;4.05;;;0.20;97.90;;;;;;9822811;29;20080;-56
2022/01/16 03:35:35;;;;;;;12.60;4.65;;;0.20;98.10;;;;;;9819754;29;20024;-60
2022/01/16 03:40:25;;;;;;;15.52;5.45;;;0.10;97.90;;;;;;9826642;29;20475;-55
2022/01/16 03:45:17;;;;;;;10.57;4.88;;;0.20;98.00;;;;;;9828504;29;20047;-55
2022/01/16 03:50:09;;;;;;;11.32;4.63;;;0.10;97.80;;;;;;9826394;29;20055;-62
2022/01/16 03:55:00;;;;;;;11.68;4.50;;;0.10;98.00;;;;;;9829932;29;20040;-58
2022/01/16 03:59:50;;;;;;;11.70;4.43;;;0.00;98.00;;;;;;9827354;29;20090;-65
2022/01/16 04:04:41;;;;;;;9.40;4.30;;;0.10;98.00;;;;;;9827197;29;20188;-60
2022/01/16 04:09:32;;;;;;;10.40;5.28;;;0.00;98.00;;;;;;9824237;29;20399;-60
2022/01/16 04:19:35;;;;;;;14.27;5.30;;;0.10;98.00;;;;;;9824414;29;20249;-55
2022/01/16 04:24:25;;;;;;;12.60;4.35;;;0.10;97.90;;;;;;9824412;29;20058;-59
2022/01/16 04:29:16;;;;;;;14.35;5.32;;;0.20;98.00;;;;;;9822839;29;20155;-60
2022/01/16 04:34:07;;;;;;;17.50;6.22;;;0.20;97.80;;;;;;9821130;29;20040;-57
2022/01/16 04:38:57;;;;;;;13.10;4.07;;;0.10;97.80;;;;;;9827133;29;20296;-63
2022/01/16 04:43:48;;;;;;;9.90;4.13;;;0.20;98.00;;;;;;9823712;29;20035;-63
2022/01/16 04:48:39;;;;;;;10.68;4.57;;;0.10;97.90;;;;;;9821439;29;20047;-55
2022/01/16 04:53:29;;;;;;;12.23;4.60;;;0.20;97.90;;;;;;9821760;29;20024;-58
2022/01/16 04:58:21;;;;;;;13.15;4.35;;;0.20;97.90;;;;;;9819961;29;21820;-61
2022/01/16 05:03:12;;;;;;;13.80;4.53;;;0.30;97.80;;;;;;9820736;29;20039;-56
2022/01/16 05:08:03;;;;;;;11.02;4.13;;;0.40;97.90;;;;;;9831239;29;20070;-57
2022/01/16 05:12:54;;;;;;;12.93;5.88;;;0.40;97.80;;;;;;9821367;29;20025;-58
2022/01/16 05:17:45;;;;;;;13.13;5.25;;;0.40;97.70;;;;;;9830945;29;20040;-54
2022/01/16 05:22:37;;;;;;;13.80;4.05;;;0.20;98.00;;;;;;9821262;29;20083;-57
2022/01/16 05:27:27;;;;;;;7.45;4.03;;;0.10;97.90;;;;;;9819437;29;20475;-66
2022/01/16 05:32:18;;;;;;;12.57;5.38;;;0.10;98.10;;;;;;9822813;29;20036;-55
2022/01/16 05:37:09;;;;;;;11.60;5.15;;;0.20;98.10;;;;;;9826520;29;20402;-57
2022/01/16 05:42:00;;;;;;;16.55;5.45;;;0.30;97.90;;;;;;9828237;29;20220;-61
2022/01/16 05:46:50;;;;;;;13.52;5.35;;;0.40;97.90;;;;;;9821428;29;20485;-54
2022/01/16 05:51:41;;;;;;;12.32;5.40;;;0.40;97.80;;;;;;9822270;29;20127;-54
2022/01/16 05:56:32;;;;;;;10.00;5.43;;;0.20;98.00;;;;;;9819032;29;20044;-62
2022/01/16 06:01:22;;;;;;;12.15;5.50;;;0.30;98.00;;;;;;9819535;29;20032;-58
2022/01/16 06:06:13;;;;;;;16.40;5.18;;;0.40;97.90;;;;;;9818163;29;20528;-56
2022/01/16 06:11:04;;;;;;;15.07;4.32;;;0.40;97.90;;;;;;9826223;29;20040;-66
2022/01/16 06:15:55;;;;;;;13.60;4.90;;;0.40;97.90;;;;;;9824418;29;20032;-63
2022/01/16 06:20:47;;;;;;;13.32;4.45;;;0.50;97.90;;;;;;9819372;29;20032;-59
2022/01/16 06:25:38;;;;;;;13.57;4.65;;;0.50;97.90;;;;;;9823929;29;20066;-57
2022/01/16 06:30:28;;;;;;;13.98;4.50;;;0.50;97.80;;;;;;9818012;29;20116;-54
2022/01/16 06:35:19;;;;;;;15.25;5.72;;;0.60;97.90;;;;;;9817816;29;20020;-60
2022/01/16 06:40:12;;;;;;;20.25;6.18;;;0.60;97.80;;;;;;9823287;29;20075;-56
2022/01/16 06:45:04;;;;;;;17.52;6.50;;;0.70;97.70;;;;;;9821367;29;20546;-57
2022/01/16 06:49:54;;;;;;;14.45;5.07;;;0.70;97.80;;;;;;9818520;29;20511;-54
2022/01/16 06:54:45;;;;;;;17.95;7.35;;;0.50;97.70;;;;;;9822969;29;20039;-60
2022/01/16 06:59:38;;;;;;;20.98;6.38;;;0.60;97.80;;;;;;9821170;29;20098;-63
2022/01/16 07:04:29;;;;;;;18.30;5.57;;;0.40;97.90;;;;;;9820865;29;20226;-55
2022/01/16 07:09:19;;;;;;;12.75;6.13;;;0.50;97.90;;;;;;9821691;29;20290;-64
2022/01/16 07:14:10;;;;;;;15.80;6.15;;;0.60;97.80;;;;;;9824318;29;20025;-56
2022/01/16 07:19:01;;;;;;;18.02;6.20;;;0.60;97.80;;;;;;9825519;29;20084;-60
2022/01/16 07:23:53;;;;;;;17.92;5.72;;;0.50;97.70;;;;;;9827263;29;20035;-60
2022/01/16 07:28:44;;;;;;;20.40;6.65;;;0.50;97.70;;;;;;9825972;29;20047;-58
2022/01/16 07:33:35;;;;;;;18.02;8.15;;;0.50;97.80;;;;;;9825702;29;20499;-53
2022/01/16 07:38:26;;;;;;;14.02;6.57;;;0.60;97.50;;;;;;9825057;29;20032;-57
2022/01/16 07:43:16;;;;;;;17.30;6.18;;;0.50;97.70;;;;;;9826280;29;20060;-63
2022/01/16 07:48:08;;;;;;;13.35;6.85;;;0.50;97.70;;;;;;9823068;29;20048;-57
2022/01/16 07:52:58;;;;;;;12.82;6.03;;;0.40;97.60;;;;;;9823301;29;20098;-61
2022/01/16 07:57:51;;;;;;;19.90;6.82;;;0.40;97.70;;;;;;9823331;29;20052;-56
2022/01/16 08:02:42;;;;;;;14.52;6.15;;;0.50;97.50;;;;;;9825481;29;20068;-56
2022/01/16 08:07:32;;;;;;;16.80;7.18;;;0.30;97.40;;;;;;9826643;29;20118;-55
2022/01/16 08:12:23;;;;;;;16.77;7.75;;;0.40;97.50;;;;;;9827193;29;20077;-54
2022/01/16 08:17:14;;;;;;;22.85;6.82;;;0.50;97.50;;;;;;9822486;29;20020;-60
2022/01/16 08:22:05;;;;;;;20.40;6.82;;;0.50;97.30;;;;;;9825231;29;20024;-57
2022/01/16 08:26:55;;;;;;;22.40;9.00;;;0.40;97.30;;;;;;9822126;29;20028;-54
2022/01/16 08:31:46;;;;;;;19.45;8.27;;;0.40;97.40;;;;;;9826411;29;20029;-63
2022/01/16 08:36:37;;;;;;;19.48;7.68;;;0.50;97.50;;;;;;9832153;29;20392;-60
2022/01/16 08:41:28;;;;;;;18.23;7.90;;;0.60;97.40;;;;;;9821831;29;20028;-60
2022/01/16 08:46:20;;;;;;;22.05;9.02;;;0.70;97.40;;;;;;9828179;29;20033;-59
2022/01/16 08:51:11;;;;;;;19.95;8.32;;;1.00;97.30;;;;;;9823408;29;20115;-55
2022/01/16 08:56:02;;;;;;;16.27;7.00;;;1.10;97.20;;;;;;9824802;29;20127;-58
2022/01/16 09:00:53;;;;;;;20.08;8.32;;;1.10;97.20;;;;;;9824002;29;20527;-58
2022/01/16 09:05:45;;;;;;;20.90;9.10;;;1.30;97.30;;;;;;9821425;29;20032;-56
2022/01/16 09:10:37;;;;;;;18.02;8.45;;;1.40;97.30;;;;;;9827306;29;20058;-59
2022/01/16 09:15:28;;;;;;;19.70;8.32;;;1.50;97.40;;;;;;9821020;29;20040;-62
2022/01/16 09:20:19;;;;;;;20.23;8.90;;;1.50;97.30;;;;;;9823284;29;20163;-57
2022/01/16 09:25:10;;;;;;;19.58;9.90;;;1.60;97.40;;;;;;9823596;29;20036;-60
2022/01/16 09:30:01;;;;;;;20.17;9.52;;;1.60;97.50;;;;;;9825419;29;20083;-58
2022/01/16 09:34:51;;;;;;;21.38;9.82;;;1.60;97.40;;;;;;9822190;29;20111;-59
2022/01/16 09:39:42;;;;;;;23.60;9.55;;;1.70;97.30;;;;;;9822380;29;20043;-61
2022/01/16 09:44:38;;;;;;;23.42;10.07;;;1.90;97.20;;;;;;9821433;29;20103;-59
2022/01/16 09:49:29;;;;;;;21.77;10.55;;;2.10;97.10;;;;;;9821322;29;20081;-56
2022/01/16 09:54:21;;;;;;;25.73;12.13;;;2.30;97.30;;;;;;9820721;29;20034;-62
2022/01/16 09:59:12;;;;;;;22.98;12.13;;;2.40;97.20;;;;;;9822777;29;20491;-55
2022/01/16 10:04:03;;;;;;;22.90;12.63;;;2.70;97.30;;;;;;9823059;29;20042;-62
2022/01/16 10:08:54;;;;;;;24.13;11.88;;;2.80;97.10;;;;;;9818058;29;20044;-54
2022/01/16 10:14:09;;;;;;;18.55;10.27;;;2.70;97.30;;;;;;9820371;29;20103;-61
2022/01/16 10:19:00;;;;;;;24.02;11.30;;;2.80;97.30;;;;;;9818071;29;20032;-63
2022/01/16 10:23:51;;;;;;;23.98;12.20;;;2.70;97.20;;;;;;9823343;29;20043;-64
2022/01/16 10:28:42;;;;;;;20.42;12.38;;;2.70;97.40;;;;;;9821968;29;20044;-59
2022/01/16 10:33:33;;;;;;;21.95;9.73;;;2.80;97.40;;;;;;9823538;29;20028;-59
2022/01/16 10:38:27;;;;;;;18.60;9.70;;;2.90;97.20;;;;;;9821130;29;20031;-57
2022/01/16 10:43:36;;;;;;;25.88;11.32;;;3.10;97.00;;;;;;9819420;29;20107;-58
2022/01/16 10:48:27;;;;;;;29.70;11.75;;;3.20;96.80;;;;;;9826349;29;20447;-58
2022/01/16 10:53:22;;;;;;;23.48;10.05;;;3.40;97.00;;;;;;9826208;29;20131;-69
2022/01/16 10:58:23;;;;;;;20.27;9.93;;;3.50;96.50;;;;;;9821378;29;20546;-56
2022/01/16 11:03:15;;;;;;;25.13;10.98;;;3.30;97.00;;;;;;9829098;29;20035;-60
2022/01/16 11:08:15;;;;;;;22.83;11.43;;;3.50;96.90;;;;;;9822485;29;20414;-56
2022/01/16 11:13:11;;;;;;;20.67;11.55;;;3.50;97.00;;;;;;9842155;29;20187;-60
2022/01/16 11:18:03;;;;;;;19.80;11.13;;;3.50;96.70;;;;;;9825214;29;20032;-67
2022/01/16 11:27:46;;;;;;;22.42;10.05;;;3.10;96.70;;;;;;9832311;29;20134;-65
2022/01/16 11:32:37;;;;;;;19.15;9.13;;;2.90;96.70;;;;;;9826677;29;20111;-61
2022/01/16 11:37:29;;;;;;;28.95;13.75;;;2.90;96.80;;;;;;9827810;29;20036;-65
2022/01/16 11:42:26;;;;;;;28.25;12.27;;;3.30;96.50;;;;;;9824709;29;20318;-60
2022/01/16 11:47:17;;;;;;;25.67;12.00;;;3.60;96.30;;;;;;9831488;29;20062;-61
2022/01/16 11:52:16;;;;;;;22.55;11.73;;;3.70;96.10;;;;;;9818930;29;20103;-59
2022/01/16 11:57:20;;;;;;;24.98;10.80;;;3.60;96.20;;;;;;9829438;29;20155;-58
2022/01/16 12:02:15;;;;;;;23.33;11.88;;;3.80;96.20;;;;;;9822866;29;20040;-63
2022/01/16 12:07:19;;;;;;;27.75;11.75;;;3.90;96.00;;;;;;9824462;29;20028;-61
2022/01/16 12:12:13;;;;;;;23.45;10.25;;;3.90;95.90;;;;;;9825009;29;20040;-60
2022/01/16 12:17:34;;;;;;;29.35;13.77;;;3.80;96.20;;;;;;9827917;29;20034;-58
2022/01/16 12:22:57;;;;;;;20.33;10.57;;;3.90;96.20;;;;;;9826608;29;20054;-56
2022/01/16 12:27:51;;;;;;;23.10;11.00;;;4.00;96.10;;;;;;9818340;29;20063;-61
2022/01/16 12:33:00;;;;;;;20.67;10.30;;;4.00;95.90;;;;;;9822529;29;20704;-65
2022/01/16 12:37:52;;;;;;;25.08;12.20;;;4.00;95.80;;;;;;9825942;29;20034;-58
2022/01/16 12:42:43;;;;;;;23.95;11.90;;;4.30;96.00;;;;;;9822258;29;20087;-59
2022/01/16 12:47:35;;;;;;;22.33;11.82;;;4.60;95.80;;;;;;9823671;29;20115;-70
2022/01/16 12:52:27;;;;;;;18.45;10.70;;;4.80;95.60;;;;;;9821431;29;20059;-65
2022/01/16 12:57:28;;;;;;;25.00;11.40;;;4.70;95.50;;;;;;9821417;29;20090;-66
2022/01/16 13:02:18;;;;;;;16.58;8.20;;;4.60;95.80;;;;;;9819000;29;20487;-61
2022/01/16 13:07:12;;;;;;;23.27;11.75;;;4.40;95.70;;;;;;9822883;29;20039;-58
2022/01/16 13:12:04;;;;;;;22.83;9.52;;;4.30;95.90;;;;;;9821002;29;20051;-59
2022/01/16 13:16:59;;;;;;;21.90;8.80;;;4.40;95.80;;;;;;9821496;29;20028;-60
2022/01/16 13:22:05;;;;;;;26.75;9.85;;;4.30;95.60;;;;;;9824966;29;20132;-66
2022/01/16 13:26:57;;;;;;;23.60;10.10;;;4.40;95.70;;;;;;9824046;29;20032;-66
2022/01/16 13:31:49;;;;;;;24.50;9.60;;;4.60;95.50;;;;;;9826070;29;20477;-64
2022/01/16 13:36:56;;;;;;;18.13;9.73;;;4.40;95.50;;;;;;9827392;29;20549;-62
2022/01/16 13:42:37;;;;;;;20.48;9.88;;;4.30;95.50;;;;;;9818324;29;20035;-64
2022/01/16 13:47:28;;;;;;;19.30;9.30;;;4.30;95.50;;;;;;9822251;29;20052;-62
2022/01/16 13:52:25;;;;;;;23.88;9.75;;;4.40;95.50;;;;;;9822207;29;20020;-58
2022/01/16 13:57:33;;;;;;;19.98;10.52;;;4.60;95.40;;;;;;9821666;29;20048;-57
2022/01/16 14:02:24;;;;;;;21.13;10.13;;;4.60;95.30;;;;;;9822834;29;20028;-56
2022/01/16 14:07:21;;;;;;;22.38;10.07;;;4.70;95.20;;;;;;9820814;29;20031;-59
2022/01/16 14:12:12;;;;;;;21.80;10.55;;;4.70;95.20;;;;;;9824860;29;20116;-56
2022/01/16 14:22:03;;;;;;;24.38;11.48;;;4.40;95.30;;;;;;9818358;29;20033;-59
2022/01/16 14:26:56;;;;;;;21.30;9.38;;;4.40;95.30;;;;;;9818199;29;20036;-62
2022/01/16 14:31:48;;;;;;;19.20;9.98;;;4.30;95.40;;;;;;9819345;29;20028;-56
2022/01/16 14:36:40;;;;;;;19.65;9.70;;;4.30;95.30;;;;;;9822517;29;20032;-62
2022/01/16 14:41:33;;;;;;;22.05;9.73;;;4.20;95.30;;;;;;9817298;29;20070;-59
2022/01/16 14:46:26;;;;;;;19.30;9.38;;;4.20;95.30;;;;;;9822321;29;20108;-60
2022/01/16 14:51:17;;;;;;;14.00;8.57;;;4.20;95.20;;;;;;9827094;29;20064;-59
2022/01/16 14:56:09;;;;;;;18.10;9.25;;;4.30;95.30;;;;;;9819706;29;20047;-59
2022/01/16 15:01:00;;;;;;;17.25;9.80;;;4.30;95.20;;;;;;9821837;29;20036;-61
2022/01/16 15:05:51;;;;;;;21.45;10.32;;;4.30;95.20;;;;;;9821866;29;20068;-62
2022/01/16 15:10:42;;;;;;;22.38;10.63;;;4.30;95.30;;;;;;9816440;29;20044;-60
2022/01/16 15:15:33;;;;;;;17.73;9.68;;;4.30;95.20;;;;;;9822926;29;20028;-60
2022/01/16 15:20:28;;;;;;;16.50;9.15;;;4.20;95.20;;;;;;9819265;29;20059;-60
2022/01/16 15:25:19;;;;;;;20.00;9.07;;;4.20;95.30;;;;;;9822722;29;20021;-56
2022/01/16 15:30:13;;;;;;;19.38;9.93;;;4.30;95.30;;;;;;9817799;29;20043;-61
2022/01/16 15:35:04;;;;;;;22.90;10.95;;;4.30;95.20;;;;;;9819573;29;20484;-58
2022/01/16 15:39:55;;;;;;;20.88;9.60;;;4.30;95.20;;;;;;9824680;29;20036;-57
2022/01/16 15:44:46;;;;;;;20.52;9.73;;;4.30;95.20;;;;;;9824688;29;20031;-55
2022/01/16 15:49:36;;;;;;;20.17;9.63;;;4.30;95.20;;;;;;9826792;29;20039;-56
2022/01/16 15:54:27;;;;;;;20.38;8.88;;;4.30;95.20;;;;;;9826303;29;20526;-59
2022/01/16 15:59:18;;;;;;;18.70;9.05;;;4.30;95.20;;;;;;9826690;29;20143;-57
2022/01/16 16:04:09;;;;;;;18.80;10.45;;;4.30;95.20;;;;;;9824187;29;20384;-57
2022/01/16 16:09:00;;;;;;;22.05;10.38;;;4.30;95.10;;;;;;9830616;29;20043;-53
2022/01/16 16:13:52;;;;;;;18.08;7.35;;;4.30;95.20;;;;;;9824292;29;20058;-54
2022/01/16 16:18:43;;;;;;;20.23;9.85;;;4.30;95.10;;;;;;9823521;29;20036;-56
2022/01/16 16:23:33;;;;;;;16.00;8.52;;;4.40;95.10;;;;;;9823733;29;20040;-58
2022/01/16 16:28:24;;;;;;;20.88;9.13;;;4.40;95.10;;;;;;9824336;29;20033;-64
2022/01/16 16:33:15;;;;;;;22.95;9.98;;;4.40;95.00;;;;;;9822416;29;20067;-62
2022/01/16 16:38:06;;;;;;;18.65;9.55;;;4.40;95.00;;;;;;9833958;29;20481;-59
2022/01/16 16:42:57;;;;;;;20.17;9.82;;;4.40;95.00;;;;;;9825592;29;20391;-56
2022/01/16 16:47:47;;;;;;;23.58;10.07;;;4.30;94.90;;;;;;9825907;29;20046;-58
2022/01/16 16:52:39;;;;;;;20.65;10.70;;;4.20;95.00;;;;;;9822913;29;20024;-60
2022/01/16 16:57:30;;;;;;;23.58;11.50;;;4.10;95.20;;;;;;9821311;29;20067;-56
2022/01/16 17:02:20;;;;;;;25.33;11.10;;;3.90;95.30;;;;;;9820851;29;20043;-56
2022/01/16 17:07:13;;;;;;;25.15;10.98;;;3.80;95.40;;;;;;9824671;29;20044;-54
2022/01/16 17:12:06;;;;;;;22.42;9.75;;;3.90;95.50;;;;;;9824345;29;20038;-58
2022/01/16 17:16:57;;;;;;;26.33;11.00;;;3.90;95.30;;;;;;9829255;29;20524;-60
2022/01/16 17:21:47;;;;;;;26.88;13.27;;;3.90;95.30;;;;;;9826605;29;20115;-58
2022/01/16 17:26:38;;;;;;;25.17;11.65;;;3.90;95.30;;;;;;9825934;29;20031;-60
2022/01/16 17:31:29;;;;;;;21.92;10.05;;;4.00;95.20;;;;;;9819126;29;20079;-53
2022/01/16 17:36:20;;;;;;;27.02;12.93;;;3.90;95.30;;;;;;9824925;29;20059;-62
2022/01/16 17:41:12;;;;;;;24.38;11.93;;;3.90;95.40;;;;;;9822595;29;20103;-65
2022/01/16 17:46:02;;;;;;;25.27;11.35;;;3.90;95.50;;;;;;9822522;29;20439;-65
2022/01/16 17:50:53;;;;;;;25.65;10.15;;;3.80;95.50;;;;;;9819137;29;20040;-59
2022/01/16 17:55:44;;;;;;;22.73;10.65;;;3.70;95.60;;;;;;9819131;29;20040;-63
2022/01/16 18:00:34;;;;;;;23.67;10.95;;;3.70;95.70;;;;;;9823436;29;20036;-64
2022/01/16 18:05:25;;;;;;;27.35;11.02;;;3.60;95.70;;;;;;9821648;29;20032;-57
2022/01/16 18:10:19;;;;;;;24.80;12.32;;;3.60;95.70;;;;;;9822112;29;20611;-57
2022/01/16 18:15:10;;;;;;;27.33;14.10;;;3.80;95.50;;;;;;9821569;29;20028;-59
2022/01/16 18:20:01;;;;;;;30.42;11.70;;;3.80;95.60;;;;;;9821193;29;20036;-57
2022/01/16 18:24:51;;;;;;;24.20;12.35;;;3.80;95.50;;;;;;9819629;29;20040;-56
2022/01/16 18:29:43;;;;;;;24.40;12.15;;;3.80;95.50;;;;;;9824756;29;20406;-59
2022/01/16 18:34:34;;;;;;;27.08;11.15;;;3.90;95.50;;;;;;9827445;29;20448;-65
2022/01/16 18:39:26;;;;;;;28.70;10.35;;;4.00;95.40;;;;;;9821602;29;20036;-64
2022/01/16 18:44:16;;;;;;;23.15;11.48;;;4.10;95.30;;;;;;9825205;29;20035;-58
2022/01/16 18:49:09;;;;;;;24.80;11.52;;;4.10;95.30;;;;;;9819050;29;20039;-58
2022/01/16 18:53:59;;;;;;;23.48;11.07;;;4.20;95.40;;;;;;9821883;29;20031;-67
2022/01/16 18:58:51;;;;;;;27.00;12.68;;;4.20;95.30;;;;;;9819903;29;20051;-65
2022/01/16 19:03:43;;;;;;;21.15;10.32;;;4.20;95.40;;;;;;9821298;29;20172;-70
2022/01/16 19:08:34;;;;;;;28.58;13.57;;;4.20;95.40;;;;;;9825722;29;20055;-67
2022/01/16 19:13:29;;;;;;;28.58;12.32;;;4.20;95.40;;;;;;9833659;29;20035;-63
2022/01/16 19:18:20;;;;;;;33.10;12.80;;;4.20;95.40;;;;;;9828014;29;20067;-60
2022/01/16 19:23:11;;;;;;;21.52;12.15;;;4.20;95.50;;;;;;9825761;29;20470;-68
2022/01/16 19:28:03;;;;;;;26.70;12.55;;;4.30;95.40;;;;;;9823295;29;21075;-64
2022/01/16 19:32:53;;;;;;;27.80;13.90;;;4.20;95.40;;;;;;9829685;29;20043;-62
2022/01/16 19:37:46;;;;;;;29.38;13.38;;;4.10;95.50;;;;;;9831492;29;20030;-58
2022/01/16 19:42:47;;;;;;;27.02;11.65;;;4.20;95.60;;;;;;9828467;29;20091;-58
2022/01/16 19:47:38;;;;;;;24.05;12.27;;;4.20;95.60;;;;;;9823449;29;20098;-57
2022/01/16 19:52:29;;;;;;;25.60;12.45;;;4.10;95.60;;;;;;9825449;29;20027;-57
2022/01/16 19:57:23;;;;;;;22.48;12.25;;;4.10;95.60;;;;;;9828112;29;20044;-58
2022/01/16 20:02:14;;;;;;;20.33;11.35;;;4.20;95.60;;;;;;9827205;29;20278;-57
2022/01/16 20:07:04;;;;;;;23.17;10.20;;;4.10;95.60;;;;;;9826063;29;20205;-58
2022/01/16 20:11:55;;;;;;;24.23;9.15;;;4.10;95.60;;;;;;9828075;29;20044;-58
2022/01/16 20:16:46;;;;;;;23.95;10.80;;;4.00;95.90;;;;;;9824816;29;20024;-57
2022/01/16 20:21:38;;;;;;;29.33;12.30;;;3.90;95.70;;;;;;9826765;29;20028;-55
2022/01/16 20:26:30;;;;;;;21.90;8.82;;;4.00;95.60;;;;;;9824899;29;20036;-60
2022/01/16 20:31:21;;;;;;;20.23;11.18;;;3.90;95.60;;;;;;9822065;29;20672;-56
2022/01/16 20:36:13;;;;;;;21.85;10.23;;;3.90;95.70;;;;;;9822264;29;20024;-63
2022/01/16 20:41:03;;;;;;;21.77;12.98;;;3.90;95.70;;;;;;9824176;29;20043;-55
2022/01/16 20:45:54;;;;;;;26.73;11.77;;;3.90;95.60;;;;;;9821651;29;20035;-56
2022/01/16 20:50:46;;;;;;;27.42;12.82;;;3.90;95.60;;;;;;9823488;29;20050;-57
2022/01/16 20:55:41;;;;;;;25.13;13.35;;;3.90;95.70;;;;;;9819498;29;20055;-58
2022/01/16 21:00:31;;;;;;;28.38;13.27;;;4.00;95.60;;;;;;9818382;29;20028;-62
2022/01/16 21:05:22;;;;;;;33.47;13.85;;;4.00;95.50;;;;;;9830254;29;20075;-55
2022/01/16 21:10:13;;;;;;;22.85;11.40;;;4.00;95.60;;;;;;9827163;29;20102;-57
2022/01/16 21:15:05;;;;;;;35.13;12.98;;;3.90;95.60;;;;;;9826427;29;20046;-69
2022/01/16 21:19:55;;;;;;;23.65;11.43;;;3.80;95.60;;;;;;9824421;29;20114;-58
2022/01/16 21:24:46;;;;;;;23.83;11.02;;;3.80;95.70;;;;;;9821596;29;20477;-56
2022/01/16 21:29:38;;;;;;;20.23;8.65;;;3.70;95.50;;;;;;9818047;29;20093;-55
2022/01/16 21:34:29;;;;;;;21.95;10.80;;;3.70;95.70;;;;;;9820462;29;20051;-62
2022/01/16 21:39:20;;;;;;;20.48;11.13;;;3.60;95.60;;;;;;9821013;29;20526;-61
2022/01/16 21:44:11;;;;;;;28.60;11.63;;;3.60;95.70;;;;;;9819360;29;20067;-67
2022/01/16 21:49:03;;;;;;;24.77;10.30;;;3.40;95.60;;;;;;9824913;29;20267;-64
2022/01/16 21:53:53;;;;;;;21.88;10.55;;;3.50;95.90;;;;;;9823271;29;20466;-62
2022/01/16 21:58:44;;;;;;;25.45;10.88;;;3.60;95.50;;;;;;9816819;29;20052;-59
2022/01/16 22:03:36;;;;;;;28.52;10.73;;;3.40;95.50;;;;;;9821154;29;20023;-62
2022/01/16 22:08:27;;;;;;;27.65;11.40;;;3.40;95.60;;;;;;9819681;29;20032;-57
2022/01/16 22:13:21;;;;;;;23.13;10.63;;;3.50;95.60;;;;;;9821155;29;20549;-56
2022/01/16 22:18:11;;;;;;;23.10;12.55;;;3.40;95.60;;;;;;9818408;29;20042;-62
2022/01/16 22:23:02;;;;;;;19.42;9.20;;;3.50;95.50;;;;;;9820110;29;20671;-56
2022/01/16 22:27:54;;;;;;;19.75;9.98;;;3.30;95.40;;;;;;9817640;29;20211;-59
2022/01/16 22:32:44;;;;;;;21.73;9.68;;;3.30;95.40;;;;;;9825988;29;20020;-58
2022/01/16 22:37:35;;;;;;;20.83;9.23;;;3.30;95.50;;;;;;9818648;29;20036;-58
2022/01/16 22:42:26;;;;;;;18.52;9.10;;;3.30;95.40;;;;;;9821554;29;20016;-61
2022/01/16 22:47:17;;;;;;;24.58;10.93;;;3.20;95.40;;;;;;9825448;29;20044;-59
2022/01/16 22:52:07;;;;;;;19.90;9.77;;;3.10;95.40;;;;;;9825788;29;20040;-58
2022/01/16 22:56:58;;;;;;;20.63;8.07;;;3.10;95.30;;;;;;9825698;29;20118;-60
2022/01/16 23:01:49;;;;;;;23.20;9.27;;;3.00;95.40;;;;;;9828372;29;20028;-55
2022/01/16 23:06:42;;;;;;;24.83;8.90;;;2.90;95.50;;;;;;9829355;29;20040;-59
2022/01/16 23:11:35;;;;;;;18.67;8.45;;;2.90;95.50;;;;;;9826912;29;20118;-55
2022/01/16 23:16:25;;;;;;;18.05;7.55;;;2.90;95.40;;;;;;9825357;29;20518;-62
2022/01/16 23:21:16;;;;;;;18.83;7.63;;;2.90;95.40;;;;;;9830104;29;20028;-59
2022/01/16 23:26:07;;;;;;;18.60;7.93;;;2.90;95.40;;;;;;9824615;29;20043;-59
2022/01/16 23:30:58;;;;;;;17.65;8.25;;;2.80;95.30;;;;;;9825664;29;20525;-61
2022/01/16 23:35:49;;;;;;;18.88;8.82;;;2.90;95.30;;;;;;9828397;29;20030;-60
2022/01/16 23:40:40;;;;;;;20.13;8.60;;;2.90;95.20;;;;;;9825079;29;20047;-56
2022/01/16 23:45:32;;;;;;;18.08;7.78;;;2.90;95.30;;;;;;9824980;29;20028;-59
2022/01/16 23:50:24;;;;;;;21.58;8.52;;;2.80;95.20;;;;;;9823428;29;20042;-57
2022/01/16 23:55:14;;;;;;;15.80;7.95;;;2.90;95.20;;;;;;9826719;29;20103;-64
